sensor_id;sensor_type;location;lat;lon;timestamp;pressure;altitude;pressure_sealevel;temperature
69007;BMP180;56061;51.748;19.620;2023-01-15T00:01:57;98174.40;;;5.30
69007;BMP180;56061;51.748;19.620;2023-01-15T00:04:24;98166.00;;;5.22
69007;BMP180;56061;51.748;19.620;2023-01-15T00:06:51;98160.20;;;5.20
69007;BMP180;56061;51.748;19.620;2023-01-15T00:09:19;98148.00;;;5.20
69007;BMP180;56061;51.748;19.620;2023-01-15T00:11:46;98143.00;;;5.10
69007;BMP180;56061;51.748;19.620;2023-01-15T00:14:12;98134.80;;;5.04
69007;BMP180;56061;51.748;19.620;2023-01-15T00:16:39;98130.60;;;5.10
69007;BMP180;56061;51.748;19.620;2023-01-15T00:19:09;98115.80;;;5.00
69007;BMP180;56061;51.748;19.620;2023-01-15T00:21:37;98115.00;;;4.94
69007;BMP180;56061;51.748;19.620;2023-01-15T00:24:04;98114.40;;;4.94
69007;BMP180;56061;51.748;19.620;2023-01-15T00:26:49;98108.60;;;5.00
69007;BMP180;56061;51.748;19.620;2023-01-15T00:29:34;98101.40;;;5.00
69007;BMP180;56061;51.748;19.620;2023-01-15T00:32:05;98097.00;;;4.90
69007;BMP180;56061;51.748;19.620;2023-01-15T00:34:33;98078.60;;;4.90
69007;BMP180;56061;51.748;19.620;2023-01-15T00:37:00;98085.20;;;4.78
69007;BMP180;56061;51.748;19.620;2023-01-15T00:39:28;98079.00;;;4.70
69007;BMP180;56061;51.748;19.620;2023-01-15T00:41:55;98083.60;;;4.70
69007;BMP180;56061;51.748;19.620;2023-01-15T00:44:22;98072.00;;;4.70
69007;BMP180;56061;51.748;19.620;2023-01-15T00:46:48;98079.40;;;4.70
69007;BMP180;56061;51.748;19.620;2023-01-15T00:49:15;98066.00;;;4.70
69007;BMP180;56061;51.748;19.620;2023-01-15T00:51:42;98066.20;;;4.72
69007;BMP180;56061;51.748;19.620;2023-01-15T00:54:08;98069.00;;;4.70
69007;BMP180;56061;51.748;19.620;2023-01-15T00:56:35;98064.20;;;4.70
69007;BMP180;56061;51.748;19.620;2023-01-15T00:59:03;98064.40;;;4.64
69007;BMP180;56061;51.748;19.620;2023-01-15T01:01:30;98065.00;;;4.60
69007;BMP180;56061;51.748;19.620;2023-01-15T01:03:57;98051.40;;;4.64
69007;BMP180;56061;51.748;19.620;2023-01-15T01:06:24;98061.00;;;4.70
69007;BMP180;56061;51.748;19.620;2023-01-15T01:08:50;98051.60;;;4.70
69007;BMP180;56061;51.748;19.620;2023-01-15T01:11:21;98051.40;;;4.70
69007;BMP180;56061;51.748;19.620;2023-01-15T01:13:50;98039.60;;;4.68
69007;BMP180;56061;51.748;19.620;2023-01-15T01:16:28;98032.60;;;4.60
69007;BMP180;56061;51.748;19.620;2023-01-15T01:18:58;98023.20;;;4.60
69007;BMP180;56061;51.748;19.620;2023-01-15T01:21:26;98020.80;;;4.50
69007;BMP180;56061;51.748;19.620;2023-01-15T01:23:53;98011.40;;;4.50
69007;BMP180;56061;51.748;19.620;2023-01-15T01:26:20;98000.00;;;4.42
69007;BMP180;56061;51.748;19.620;2023-01-15T01:28:51;97997.40;;;4.40
69007;BMP180;56061;51.748;19.620;2023-01-15T01:31:19;97998.60;;;4.40
69007;BMP180;56061;51.748;19.620;2023-01-15T01:33:50;97990.60;;;4.40
69007;BMP180;56061;51.748;19.620;2023-01-15T01:36:18;97984.60;;;4.50
69007;BMP180;56061;51.748;19.620;2023-01-15T01:38:48;97985.60;;;4.50
69007;BMP180;56061;51.748;19.620;2023-01-15T01:41:17;97988.60;;;4.50
69007;BMP180;56061;51.748;19.620;2023-01-15T01:47:08;97990.00;;;4.60
69007;BMP180;56061;51.748;19.620;2023-01-15T01:49:38;97980.00;;;4.60
69007;BMP180;56061;51.748;19.620;2023-01-15T01:52:21;97972.60;;;4.70
69007;BMP180;56061;51.748;19.620;2023-01-15T01:54:50;97965.60;;;4.70
69007;BMP180;56061;51.748;19.620;2023-01-15T01:57:19;97972.60;;;4.70
69007;BMP180;56061;51.748;19.620;2023-01-15T01:59:47;97967.60;;;4.80
69007;BMP180;56061;51.748;19.620;2023-01-15T02:02:15;97962.40;;;4.80
69007;BMP180;56061;51.748;19.620;2023-01-15T02:04:43;97971.20;;;4.88
69007;BMP180;56061;51.748;19.620;2023-01-15T02:07:10;97969.20;;;4.90
69007;BMP180;56061;51.748;19.620;2023-01-15T02:09:36;97961.60;;;4.90
69007;BMP180;56061;51.748;19.620;2023-01-15T02:12:35;97938.00;;;4.96
69007;BMP180;56061;51.748;19.620;2023-01-15T02:15:14;97925.00;;;5.00
69007;BMP180;56061;51.748;19.620;2023-01-15T02:18:06;97921.80;;;5.00
69007;BMP180;56061;51.748;19.620;2023-01-15T02:20:49;97910.40;;;5.00
69007;BMP180;56061;51.748;19.620;2023-01-15T02:23:53;97911.20;;;5.06
69007;BMP180;56061;51.748;19.620;2023-01-15T02:27:15;97904.00;;;5.10
69007;BMP180;56061;51.748;19.620;2023-01-15T02:30:17;97897.80;;;5.10
69007;BMP180;56061;51.748;19.620;2023-01-15T02:32:54;97894.00;;;5.10
69007;BMP180;56061;51.748;19.620;2023-01-15T02:35:33;97897.00;;;5.10
69007;BMP180;56061;51.748;19.620;2023-01-15T02:38:06;97893.60;;;5.00
69007;BMP180;56061;51.748;19.620;2023-01-15T02:40:35;97895.40;;;5.00
69007;BMP180;56061;51.748;19.620;2023-01-15T02:43:04;97899.40;;;4.94
69007;BMP180;56061;51.748;19.620;2023-01-15T02:45:35;97900.60;;;4.90
69007;BMP180;56061;51.748;19.620;2023-01-15T02:48:10;97893.80;;;4.90
69007;BMP180;56061;51.748;19.620;2023-01-15T02:51:04;97900.60;;;4.90
69007;BMP180;56061;51.748;19.620;2023-01-15T02:53:34;97886.80;;;4.90
69007;BMP180;56061;51.748;19.620;2023-01-15T02:56:11;97879.80;;;4.90
69007;BMP180;56061;51.748;19.620;2023-01-15T02:58:41;97876.80;;;4.90
69007;BMP180;56061;51.748;19.620;2023-01-15T03:01:28;97867.20;;;4.90
69007;BMP180;56061;51.748;19.620;2023-01-15T03:04:09;97863.00;;;4.90
69007;BMP180;56061;51.748;19.620;2023-01-15T03:06:45;97864.40;;;4.90
69007;BMP180;56061;51.748;19.620;2023-01-15T03:09:15;97866.40;;;4.90
69007;BMP180;56061;51.748;19.620;2023-01-15T03:11:50;97855.00;;;4.80
69007;BMP180;56061;51.748;19.620;2023-01-15T03:14:23;97860.80;;;4.80
69007;BMP180;56061;51.748;19.620;2023-01-15T03:16:58;97848.00;;;4.80
69007;BMP180;56061;51.748;19.620;2023-01-15T03:19:42;97841.20;;;4.70
69007;BMP180;56061;51.748;19.620;2023-01-15T03:22:31;97835.80;;;4.70
69007;BMP180;56061;51.748;19.620;2023-01-15T03:25:12;97836.60;;;4.70
69007;BMP180;56061;51.748;19.620;2023-01-15T03:27:38;97835.00;;;4.70
69007;BMP180;56061;51.748;19.620;2023-01-15T03:30:12;97837.80;;;4.70
69007;BMP180;56061;51.748;19.620;2023-01-15T03:32:39;97843.00;;;4.70
69007;BMP180;56061;51.748;19.620;2023-01-15T03:38:16;97824.60;;;4.70
69007;BMP180;56061;51.748;19.620;2023-01-15T03:41:06;97822.00;;;4.70
69007;BMP180;56061;51.748;19.620;2023-01-15T03:52:37;97792.80;;;4.90
69007;BMP180;56061;51.748;19.620;2023-01-15T03:55:14;97778.80;;;4.90
69007;BMP180;56061;51.748;19.620;2023-01-15T03:58:01;97775.60;;;4.90
69007;BMP180;56061;51.748;19.620;2023-01-15T04:03:14;97775.80;;;4.90
69007;BMP180;56061;51.748;19.620;2023-01-15T04:05:43;97775.20;;;4.90
69007;BMP180;56061;51.748;19.620;2023-01-15T04:08:12;97782.00;;;4.96
69007;BMP180;56061;51.748;19.620;2023-01-15T04:10:51;97775.40;;;5.00
69007;BMP180;56061;51.748;19.620;2023-01-15T04:13:19;97762.20;;;5.08
69007;BMP180;56061;51.748;19.620;2023-01-15T04:15:45;97756.20;;;5.10
69007;BMP180;56061;51.748;19.620;2023-01-15T04:18:12;97754.40;;;5.10
69007;BMP180;56061;51.748;19.620;2023-01-15T04:20:38;97756.80;;;5.20
69007;BMP180;56061;51.748;19.620;2023-01-15T04:23:05;97751.40;;;5.20
69007;BMP180;56061;51.748;19.620;2023-01-15T04:25:32;97750.80;;;5.20
69007;BMP180;56061;51.748;19.620;2023-01-15T04:27:58;97743.60;;;5.20
69007;BMP180;56061;51.748;19.620;2023-01-15T04:30:25;97741.20;;;5.20
69007;BMP180;56061;51.748;19.620;2023-01-15T04:32:51;97744.40;;;5.22
69007;BMP180;56061;51.748;19.620;2023-01-15T04:35:19;97742.20;;;5.30
69007;BMP180;56061;51.748;19.620;2023-01-15T04:37:46;97739.40;;;5.30
69007;BMP180;56061;51.748;19.620;2023-01-15T04:40:13;97735.20;;;5.40
69007;BMP180;56061;51.748;19.620;2023-01-15T04:43:00;97722.80;;;5.40
69007;BMP180;56061;51.748;19.620;2023-01-15T04:45:45;97714.20;;;5.40
69007;BMP180;56061;51.748;19.620;2023-01-15T04:48:11;97716.20;;;5.40
69007;BMP180;56061;51.748;19.620;2023-01-15T04:50:38;97710.60;;;5.40
69007;BMP180;56061;51.748;19.620;2023-01-15T04:53:05;97711.00;;;5.40
69007;BMP180;56061;51.748;19.620;2023-01-15T04:55:32;97715.80;;;5.40
69007;BMP180;56061;51.748;19.620;2023-01-15T04:57:59;97722.80;;;5.50
69007;BMP180;56061;51.748;19.620;2023-01-15T05:00:25;97717.60;;;5.50
69007;BMP180;56061;51.748;19.620;2023-01-15T05:02:51;97723.40;;;5.60
69007;BMP180;56061;51.748;19.620;2023-01-15T05:05:18;97720.60;;;5.62
69007;BMP180;56061;51.748;19.620;2023-01-15T05:07:44;97724.40;;;5.70
69007;BMP180;56061;51.748;19.620;2023-01-15T05:10:11;97720.60;;;5.78
69007;BMP180;56061;51.748;19.620;2023-01-15T05:12:37;97709.80;;;5.80
69007;BMP180;56061;51.748;19.620;2023-01-15T05:15:05;97702.20;;;5.90
69007;BMP180;56061;51.748;19.620;2023-01-15T05:17:32;97701.60;;;5.90
69007;BMP180;56061;51.748;19.620;2023-01-15T05:19:59;97705.60;;;6.00
69007;BMP180;56061;51.748;19.620;2023-01-15T05:22:25;97703.00;;;6.00
69007;BMP180;56061;51.748;19.620;2023-01-15T05:24:52;97697.20;;;6.10
69007;BMP180;56061;51.748;19.620;2023-01-15T05:27:18;97701.00;;;6.10
69007;BMP180;56061;51.748;19.620;2023-01-15T05:29:45;97692.40;;;6.20
69007;BMP180;56061;51.748;19.620;2023-01-15T05:32:13;97688.60;;;6.20
69007;BMP180;56061;51.748;19.620;2023-01-15T05:34:39;97680.80;;;6.20
69007;BMP180;56061;51.748;19.620;2023-01-15T05:37:06;97681.80;;;6.20
69007;BMP180;56061;51.748;19.620;2023-01-15T05:39:32;97674.80;;;6.20
69007;BMP180;56061;51.748;19.620;2023-01-15T05:41:59;97675.40;;;6.20
69007;BMP180;56061;51.748;19.620;2023-01-15T05:44:28;97662.40;;;6.20
69007;BMP180;56061;51.748;19.620;2023-01-15T05:47:00;97660.60;;;6.26
69007;BMP180;56061;51.748;19.620;2023-01-15T05:49:28;97655.60;;;6.30
69007;BMP180;56061;51.748;19.620;2023-01-15T05:51:59;97649.00;;;6.38
69007;BMP180;56061;51.748;19.620;2023-01-15T05:54:30;97650.40;;;6.40
69007;BMP180;56061;51.748;19.620;2023-01-15T05:56:57;97641.60;;;6.50
69007;BMP180;56061;51.748;19.620;2023-01-15T05:59:27;97637.00;;;6.50
69007;BMP180;56061;51.748;19.620;2023-01-15T06:01:55;97633.00;;;6.54
69007;BMP180;56061;51.748;19.620;2023-01-15T06:04:22;97627.80;;;6.60
69007;BMP180;56061;51.748;19.620;2023-01-15T06:06:53;97629.40;;;6.60
69007;BMP180;56061;51.748;19.620;2023-01-15T06:09:20;97619.60;;;6.70
69007;BMP180;56061;51.748;19.620;2023-01-15T06:11:49;97614.00;;;6.70
69007;BMP180;56061;51.748;19.620;2023-01-15T06:14:16;97619.00;;;6.80
69007;BMP180;56061;51.748;19.620;2023-01-15T06:16:42;97620.20;;;6.90
69007;BMP180;56061;51.748;19.620;2023-01-15T06:19:11;97617.60;;;6.94
69007;BMP180;56061;51.748;19.620;2023-01-15T06:21:39;97624.40;;;7.00
69007;BMP180;56061;51.748;19.620;2023-01-15T06:24:07;97616.20;;;7.10
69007;BMP180;56061;51.748;19.620;2023-01-15T06:26:34;97611.60;;;7.10
69007;BMP180;56061;51.748;19.620;2023-01-15T06:29:00;97611.20;;;7.20
69007;BMP180;56061;51.748;19.620;2023-01-15T06:31:27;97605.20;;;7.30
69007;BMP180;56061;51.748;19.620;2023-01-15T06:33:54;97611.60;;;7.30
69007;BMP180;56061;51.748;19.620;2023-01-15T06:36:24;97609.00;;;7.40
69007;BMP180;56061;51.748;19.620;2023-01-15T06:38:51;97614.00;;;7.50
69007;BMP180;56061;51.748;19.620;2023-01-15T06:41:22;97614.00;;;7.50
69007;BMP180;56061;51.748;19.620;2023-01-15T06:44:15;97616.20;;;7.60
69007;BMP180;56061;51.748;19.620;2023-01-15T06:47:10;97616.00;;;7.70
69007;BMP180;56061;51.748;19.620;2023-01-15T06:49:58;97618.60;;;7.78
69007;BMP180;56061;51.748;19.620;2023-01-15T06:52:27;97617.20;;;7.80
69007;BMP180;56061;51.748;19.620;2023-01-15T06:54:54;97610.60;;;7.90
69007;BMP180;56061;51.748;19.620;2023-01-15T06:57:21;97614.00;;;7.90
69007;BMP180;56061;51.748;19.620;2023-01-15T06:59:49;97620.40;;;8.00
69007;BMP180;56061;51.748;19.620;2023-01-15T07:02:16;97618.80;;;8.00
69007;BMP180;56061;51.748;19.620;2023-01-15T07:04:44;97622.20;;;8.10
69007;BMP180;56061;51.748;19.620;2023-01-15T07:07:11;97623.20;;;8.10
69007;BMP180;56061;51.748;19.620;2023-01-15T07:09:37;97626.40;;;8.20
69007;BMP180;56061;51.748;19.620;2023-01-15T07:12:04;97632.80;;;8.20
69007;BMP180;56061;51.748;19.620;2023-01-15T07:14:30;97625.00;;;8.16
69007;BMP180;56061;51.748;19.620;2023-01-15T07:16:58;97635.00;;;8.20
69007;BMP180;56061;51.748;19.620;2023-01-15T07:19:25;97630.40;;;8.20
69007;BMP180;56061;51.748;19.620;2023-01-15T07:21:52;97631.20;;;8.30
69007;BMP180;56061;51.748;19.620;2023-01-15T07:24:21;97628.20;;;8.30
69007;BMP180;56061;51.748;19.620;2023-01-15T07:26:47;97624.60;;;8.28
69007;BMP180;56061;51.748;19.620;2023-01-15T07:29:14;97627.20;;;8.20
69007;BMP180;56061;51.748;19.620;2023-01-15T07:31:41;97628.80;;;8.20
69007;BMP180;56061;51.748;19.620;2023-01-15T07:34:08;97631.80;;;8.20
69007;BMP180;56061;51.748;19.620;2023-01-15T07:36:36;97630.80;;;8.10
69007;BMP180;56061;51.748;19.620;2023-01-15T07:39:04;97633.00;;;8.10
69007;BMP180;56061;51.748;19.620;2023-01-15T07:41:32;97623.80;;;8.10
69007;BMP180;56061;51.748;19.620;2023-01-15T07:44:17;97624.20;;;8.00
69007;BMP180;56061;51.748;19.620;2023-01-15T07:47:06;97620.20;;;8.00
69007;BMP180;56061;51.748;19.620;2023-01-15T07:49:53;97620.00;;;8.00
69007;BMP180;56061;51.748;19.620;2023-01-15T07:52:21;97622.80;;;7.90
69007;BMP180;56061;51.748;19.620;2023-01-15T07:54:49;97612.00;;;7.90
69007;BMP180;56061;51.748;19.620;2023-01-15T07:57:20;97615.20;;;7.90
69007;BMP180;56061;51.748;19.620;2023-01-15T07:59:48;97611.20;;;7.90
69007;BMP180;56061;51.748;19.620;2023-01-15T08:02:14;97609.60;;;7.90
69007;BMP180;56061;51.748;19.620;2023-01-15T08:04:41;97607.00;;;7.90
69007;BMP180;56061;51.748;19.620;2023-01-15T08:07:09;97611.80;;;7.90
69007;BMP180;56061;51.748;19.620;2023-01-15T08:09:35;97607.60;;;7.90
69007;BMP180;56061;51.748;19.620;2023-01-15T08:12:03;97599.40;;;7.90
69007;BMP180;56061;51.748;19.620;2023-01-15T08:14:48;97598.40;;;7.90
69007;BMP180;56061;51.748;19.620;2023-01-15T08:17:36;97602.00;;;7.90
69007;BMP180;56061;51.748;19.620;2023-01-15T08:20:06;97597.60;;;7.90
69007;BMP180;56061;51.748;19.620;2023-01-15T08:22:33;97597.00;;;7.90
69007;BMP180;56061;51.748;19.620;2023-01-15T08:25:00;97596.00;;;7.90
69007;BMP180;56061;51.748;19.620;2023-01-15T08:27:26;97603.80;;;7.90
69007;BMP180;56061;51.748;19.620;2023-01-15T08:29:54;97603.40;;;7.90
69007;BMP180;56061;51.748;19.620;2023-01-15T08:32:23;97607.40;;;7.84
69007;BMP180;56061;51.748;19.620;2023-01-15T08:34:50;97603.00;;;7.80
69007;BMP180;56061;51.748;19.620;2023-01-15T08:37:16;97603.40;;;7.80
69007;BMP180;56061;51.748;19.620;2023-01-15T08:39:43;97598.60;;;7.78
69007;BMP180;56061;51.748;19.620;2023-01-15T08:42:09;97603.00;;;7.70
69007;BMP180;56061;51.748;19.620;2023-01-15T08:44:36;97607.80;;;7.70
69007;BMP180;56061;51.748;19.620;2023-01-15T08:47:02;97601.80;;;7.70
69007;BMP180;56061;51.748;19.620;2023-01-15T08:49:29;97602.80;;;7.60
69007;BMP180;56061;51.748;19.620;2023-01-15T08:51:55;97608.20;;;7.60
69007;BMP180;56061;51.748;19.620;2023-01-15T08:54:22;97611.40;;;7.60
69007;BMP180;56061;51.748;19.620;2023-01-15T08:56:51;97611.00;;;7.60
69007;BMP180;56061;51.748;19.620;2023-01-15T08:59:18;97607.60;;;7.60
69007;BMP180;56061;51.748;19.620;2023-01-15T09:01:45;97606.60;;;7.60
69007;BMP180;56061;51.748;19.620;2023-01-15T09:04:19;97607.20;;;7.60
69007;BMP180;56061;51.748;19.620;2023-01-15T09:06:47;97611.60;;;7.60
69007;BMP180;56061;51.748;19.620;2023-01-15T09:09:14;97617.20;;;7.60
69007;BMP180;56061;51.748;19.620;2023-01-15T09:11:41;97605.80;;;7.60
69007;BMP180;56061;51.748;19.620;2023-01-15T09:14:13;97608.60;;;7.60
69007;BMP180;56061;51.748;19.620;2023-01-15T09:17:00;97606.00;;;7.62
69007;BMP180;56061;51.748;19.620;2023-01-15T09:19:26;97614.20;;;7.70
69007;BMP180;56061;51.748;19.620;2023-01-15T09:21:53;97605.80;;;7.70
69007;BMP180;56061;51.748;19.620;2023-01-15T09:24:19;97606.40;;;7.70
69007;BMP180;56061;51.748;19.620;2023-01-15T09:26:46;97612.00;;;7.70
69007;BMP180;56061;51.748;19.620;2023-01-15T09:29:13;97607.40;;;7.62
69007;BMP180;56061;51.748;19.620;2023-01-15T09:31:39;97600.80;;;7.60
69007;BMP180;56061;51.748;19.620;2023-01-15T09:34:06;97608.80;;;7.60
69007;BMP180;56061;51.748;19.620;2023-01-15T09:36:34;97609.00;;;7.60
69007;BMP180;56061;51.748;19.620;2023-01-15T09:39:03;97605.60;;;7.52
69007;BMP180;56061;51.748;19.620;2023-01-15T09:42:10;97600.80;;;7.50
69007;BMP180;56061;51.748;19.620;2023-01-15T09:53:55;97587.00;;;7.20
69007;BMP180;56061;51.748;19.620;2023-01-15T09:56:30;97589.00;;;7.10
69007;BMP180;56061;51.748;19.620;2023-01-15T09:59:11;97581.80;;;7.02
69007;BMP180;56061;51.748;19.620;2023-01-15T10:01:41;97576.60;;;7.00
69007;BMP180;56061;51.748;19.620;2023-01-15T10:04:31;97575.20;;;7.00
69007;BMP180;56061;51.748;19.620;2023-01-15T10:07:14;97573.80;;;7.00
69007;BMP180;56061;51.748;19.620;2023-01-15T10:09:46;97564.00;;;7.00
69007;BMP180;56061;51.748;19.620;2023-01-15T10:12:24;97560.60;;;7.00
69007;BMP180;56061;51.748;19.620;2023-01-15T10:17:45;97551.40;;;6.90
69007;BMP180;56061;51.748;19.620;2023-01-15T10:37:46;97538.60;;;6.80
69007;BMP180;56061;51.748;19.620;2023-01-15T10:40:49;97527.80;;;6.80
69007;BMP180;56061;51.748;19.620;2023-01-15T10:44:14;97526.60;;;6.80
69007;BMP180;56061;51.748;19.620;2023-01-15T10:46:49;97528.00;;;6.90
69007;BMP180;56061;51.748;19.620;2023-01-15T10:49:19;97530.00;;;7.00
69007;BMP180;56061;51.748;19.620;2023-01-15T10:51:54;97524.60;;;7.00
69007;BMP180;56061;51.748;19.620;2023-01-15T10:54:35;97522.60;;;7.00
69007;BMP180;56061;51.748;19.620;2023-01-15T10:57:11;97518.00;;;7.10
69007;BMP180;56061;51.748;19.620;2023-01-15T10:59:59;97517.80;;;7.10
69007;BMP180;56061;51.748;19.620;2023-01-15T11:03:11;97517.80;;;7.12
69007;BMP180;56061;51.748;19.620;2023-01-15T11:05:43;97519.80;;;7.18
69007;BMP180;56061;51.748;19.620;2023-01-15T11:08:22;97514.60;;;7.20
69007;BMP180;56061;51.748;19.620;2023-01-15T11:11:25;97518.80;;;7.20
69007;BMP180;56061;51.748;19.620;2023-01-15T11:14:13;97518.80;;;7.30
69007;BMP180;56061;51.748;19.620;2023-01-15T11:16:58;97507.80;;;7.30
69007;BMP180;56061;51.748;19.620;2023-01-15T11:19:37;97515.00;;;7.30
69007;BMP180;56061;51.748;19.620;2023-01-15T11:22:26;97508.40;;;7.40
69007;BMP180;56061;51.748;19.620;2023-01-15T11:24:57;97506.40;;;7.40
69007;BMP180;56061;51.748;19.620;2023-01-15T11:27:31;97499.20;;;7.40
69007;BMP180;56061;51.748;19.620;2023-01-15T11:30:03;97498.40;;;7.50
69007;BMP180;56061;51.748;19.620;2023-01-15T11:32:35;97497.00;;;7.50
69007;BMP180;56061;51.748;19.620;2023-01-15T11:35:18;97492.20;;;7.50
69007;BMP180;56061;51.748;19.620;2023-01-15T11:37:44;97498.00;;;7.50
69007;BMP180;56061;51.748;19.620;2023-01-15T11:40:20;97495.00;;;7.50
69007;BMP180;56061;51.748;19.620;2023-01-15T11:42:50;97493.60;;;7.40
69007;BMP180;56061;51.748;19.620;2023-01-15T11:45:50;97489.40;;;7.50
69007;BMP180;56061;51.748;19.620;2023-01-15T11:48:46;97484.60;;;7.50
69007;BMP180;56061;51.748;19.620;2023-01-15T11:51:43;97480.00;;;7.60
69007;BMP180;56061;51.748;19.620;2023-01-15T11:54:14;97482.40;;;7.50
69007;BMP180;56061;51.748;19.620;2023-01-15T11:56:43;97481.00;;;7.52
69007;BMP180;56061;51.748;19.620;2023-01-15T11:59:15;97480.20;;;7.60
69007;BMP180;56061;51.748;19.620;2023-01-15T12:01:59;97485.80;;;7.60
69007;BMP180;56061;51.748;19.620;2023-01-15T12:04:48;97485.60;;;7.60
69007;BMP180;56061;51.748;19.620;2023-01-15T12:07:14;97475.20;;;7.60
69007;BMP180;56061;51.748;19.620;2023-01-15T12:10:10;97474.60;;;7.70
69007;BMP180;56061;51.748;19.620;2023-01-15T12:18:26;97467.80;;;7.78
69007;BMP180;56061;51.748;19.620;2023-01-15T12:21:28;97465.40;;;7.80
69007;BMP180;56061;51.748;19.620;2023-01-15T12:24:22;97463.60;;;7.80
69007;BMP180;56061;51.748;19.620;2023-01-15T12:27:30;97466.00;;;7.80
69007;BMP180;56061;51.748;19.620;2023-01-15T12:30:20;97451.80;;;7.90
69007;BMP180;56061;51.748;19.620;2023-01-15T12:32:59;97457.40;;;7.90
69007;BMP180;56061;51.748;19.620;2023-01-15T12:35:36;97458.80;;;7.90
69007;BMP180;56061;51.748;19.620;2023-01-15T12:38:25;97457.00;;;7.90
69007;BMP180;56061;51.748;19.620;2023-01-15T12:41:07;97456.60;;;7.90
69007;BMP180;56061;51.748;19.620;2023-01-15T12:43:35;97466.40;;;7.90
69007;BMP180;56061;51.748;19.620;2023-01-15T12:46:26;97456.60;;;7.90
69007;BMP180;56061;51.748;19.620;2023-01-15T12:49:05;97457.00;;;7.90
69007;BMP180;56061;51.748;19.620;2023-01-15T12:51:50;97467.40;;;7.90
69007;BMP180;56061;51.748;19.620;2023-01-15T12:54:37;97471.40;;;7.90
69007;BMP180;56061;51.748;19.620;2023-01-15T12:57:50;97467.00;;;7.90
69007;BMP180;56061;51.748;19.620;2023-01-15T13:00:17;97472.40;;;7.94
69007;BMP180;56061;51.748;19.620;2023-01-15T13:03:04;97469.00;;;7.90
69007;BMP180;56061;51.748;19.620;2023-01-15T13:05:47;97460.20;;;7.90
69007;BMP180;56061;51.748;19.620;2023-01-15T13:08:38;97457.80;;;7.90
69007;BMP180;56061;51.748;19.620;2023-01-15T13:11:11;97465.00;;;7.90
69007;BMP180;56061;51.748;19.620;2023-01-15T13:13:41;97466.40;;;7.90
69007;BMP180;56061;51.748;19.620;2023-01-15T13:16:33;97471.20;;;7.94
69007;BMP180;56061;51.748;19.620;2023-01-15T13:21:50;97471.20;;;7.92
69007;BMP180;56061;51.748;19.620;2023-01-15T13:33:32;97486.60;;;7.88
69007;BMP180;56061;51.748;19.620;2023-01-15T13:36:13;97488.20;;;7.90
69007;BMP180;56061;51.748;19.620;2023-01-15T13:38:49;97492.00;;;7.90
69007;BMP180;56061;51.748;19.620;2023-01-15T13:41:25;97492.00;;;7.92
69007;BMP180;56061;51.748;19.620;2023-01-15T13:44:24;97500.20;;;7.90
69007;BMP180;56061;51.748;19.620;2023-01-15T13:47:12;97500.20;;;7.94
69007;BMP180;56061;51.748;19.620;2023-01-15T13:49:56;97509.40;;;7.90
69007;BMP180;56061;51.748;19.620;2023-01-15T13:52:36;97510.40;;;7.90
69007;BMP180;56061;51.748;19.620;2023-01-15T13:55:23;97506.40;;;8.00
69007;BMP180;56061;51.748;19.620;2023-01-15T13:57:51;97504.20;;;8.00
69007;BMP180;56061;51.748;19.620;2023-01-15T14:00:32;97508.00;;;8.00
69007;BMP180;56061;51.748;19.620;2023-01-15T14:03:22;97500.40;;;8.00
69007;BMP180;56061;51.748;19.620;2023-01-15T14:05:58;97501.60;;;8.00
69007;BMP180;56061;51.748;19.620;2023-01-15T14:08:35;97495.80;;;8.00
69007;BMP180;56061;51.748;19.620;2023-01-15T14:11:02;97503.80;;;8.00
69007;BMP180;56061;51.748;19.620;2023-01-15T14:14:01;97500.60;;;8.00
69007;BMP180;56061;51.748;19.620;2023-01-15T14:17:19;97509.20;;;7.96
69007;BMP180;56061;51.748;19.620;2023-01-15T14:20:33;97511.00;;;7.92
69007;BMP180;56061;51.748;19.620;2023-01-15T14:34:35;97520.60;;;7.92
69007;BMP180;56061;51.748;19.620;2023-01-15T14:40:30;97523.20;;;7.90
69007;BMP180;56061;51.748;19.620;2023-01-15T14:43:02;97519.40;;;7.90
69007;BMP180;56061;51.748;19.620;2023-01-15T14:48:19;97519.40;;;7.88
69007;BMP180;56061;51.748;19.620;2023-01-15T14:50:47;97521.80;;;7.90
69007;BMP180;56061;51.748;19.620;2023-01-15T14:53:32;97523.00;;;7.90
69007;BMP180;56061;51.748;19.620;2023-01-15T14:56:28;97518.60;;;7.88
69007;BMP180;56061;51.748;19.620;2023-01-15T14:59:07;97525.20;;;7.80
69007;BMP180;56061;51.748;19.620;2023-01-15T15:01:49;97523.40;;;7.80
69007;BMP180;56061;51.748;19.620;2023-01-15T15:04:46;97531.00;;;7.80
69007;BMP180;56061;51.748;19.620;2023-01-15T15:07:18;97524.20;;;7.80
69007;BMP180;56061;51.748;19.620;2023-01-15T15:09:55;97520.80;;;7.78
69007;BMP180;56061;51.748;19.620;2023-01-15T15:18:07;97539.60;;;7.80
69007;BMP180;56061;51.748;19.620;2023-01-15T15:26:33;97548.80;;;7.70
69007;BMP180;56061;51.748;19.620;2023-01-15T15:29:04;97559.00;;;7.50
69007;BMP180;56061;51.748;19.620;2023-01-15T15:31:37;97567.40;;;7.50
69007;BMP180;56061;51.748;19.620;2023-01-15T15:34:36;97569.40;;;7.50
69007;BMP180;56061;51.748;19.620;2023-01-15T15:37:16;97579.60;;;7.50
69007;BMP180;56061;51.748;19.620;2023-01-15T15:42:41;97580.20;;;7.50
69007;BMP180;56061;51.748;19.620;2023-01-15T15:45:30;97577.80;;;7.50
69007;BMP180;56061;51.748;19.620;2023-01-15T15:48:29;97587.60;;;7.50
69007;BMP180;56061;51.748;19.620;2023-01-15T15:51:33;97587.20;;;7.50
69007;BMP180;56061;51.748;19.620;2023-01-15T15:54:19;97578.00;;;7.50
69007;BMP180;56061;51.748;19.620;2023-01-15T16:01:51;97604.60;;;7.40
69007;BMP180;56061;51.748;19.620;2023-01-15T16:04:19;97608.00;;;7.40
69007;BMP180;56061;51.748;19.620;2023-01-15T16:06:46;97611.00;;;7.40
69007;BMP180;56061;51.748;19.620;2023-01-15T16:09:21;97610.40;;;7.40
69007;BMP180;56061;51.748;19.620;2023-01-15T16:11:51;97613.20;;;7.40
69007;BMP180;56061;51.748;19.620;2023-01-15T16:14:20;97611.20;;;7.40
69007;BMP180;56061;51.748;19.620;2023-01-15T16:16:49;97609.60;;;7.40
69007;BMP180;56061;51.748;19.620;2023-01-15T16:19:21;97605.80;;;7.32
69007;BMP180;56061;51.748;19.620;2023-01-15T16:21:50;97606.60;;;7.30
69007;BMP180;56061;51.748;19.620;2023-01-15T16:24:27;97609.20;;;7.30
69007;BMP180;56061;51.748;19.620;2023-01-15T16:27:05;97598.20;;;7.20
69007;BMP180;56061;51.748;19.620;2023-01-15T16:29:48;97605.00;;;7.20
69007;BMP180;56061;51.748;19.620;2023-01-15T16:32:26;97611.40;;;7.10
69007;BMP180;56061;51.748;19.620;2023-01-15T16:35:04;97622.40;;;7.10